West Liberty, Iowa
Current Conditions -  °F | °C
As of 6:15 AM on Friday 28 Nov 2014 (Local Time) from KMUT Reporting Station
Few Clouds Few Clouds  
Wind Chill: -15°   Ceiling: Unl
Heat Index: -8°   Visibility: 10mi
Dew Point: -13°   Wind: 10mph
Humidity: 68%   Direction: 130°SE
Pressure: 30.19"   Gusts: NA
Location:  41.57°N, 91.26°W
Report Text: KMUT 281215Z AUTO 13009KT 10SM FEW110 M08/M13 A3019 RMK AO2
Loading
Personal Weather Stations






























Interactive Weather Map New forecast layout! Learn more

10-Day Weather Forecast

Advertisements
Track Severe Weather on mobile